Antlers, Oklahoma
Current Conditions -  °F | °C
As of 6:55 AM on Tuesday 21 Oct 2014 (Local Time) from KHHW Reporting Station
NA  
Wind Chill: 15°   Ceiling: NA
Heat Index: 15°   Visibility: NA
Dew Point: 14°   Wind: 0mph
Humidity: 93%   Direction: NA
Pressure: 30.07"   Gusts: NA
Location:  34.23°N, 95.62°W
Report Text: KHHW 211155Z AUTO 00000KT 15/14 A3007 RMK AO2 T01480137 10178 20148 PWINO
Loading
Personal Weather Stations






























Interactive Weather Map
Tropical Storm Tracking
New forecast layout! Learn more

10-Day Weather Forecast

Advertisements
Track Severe Weather on mobile